Ana Sayfa
METAR-TAF:

METAR-TAF

Havaalanları :

Culiacán, Meksika

Enlem: 24-49N, Boylam: 107-24W, yükseklik: 39 m

Güncel hava durumu gözlemi

Rapor saat 04:46 UTC de 7 saat ve 46 dakika önce yapıldı.
Sakin rüzgar
Sıcaklık 22°C
Nem 100%
Basınç 1017 hPa
Görüş mesafesi: 16.1 km
Açık gökyüzü

METAR: MMCL 080446Z 00000KT 10SM SKC 22/22 A3002 RMK HZY

Saat: 05:32 (12:32 UTC)

Tahmin

Rapor saat 03:16 UTC de 9 saat ve 16 dakika önce yapıldı.
Ayın 08'si saat 06 UTC'den ayın 09'si saat 06 UTC'ye kadar geçerli Tahmin
Rüzgar kuzeydan kt
Görüş mesafesi: 10 km
Açık gökyüzü
Ayın 08'si saat 1800 UTC'den
Rüzgar batı/güneybatıdan 10 kt
Görüş mesafesi: 10 km
1500 ft yükseklikte parçalı bulutlu
25000 ft yükseklikte parçalı bulutlu
Ayın 09'si saat 0500 UTC'den
Rüzgar kuzeydan kt
Görüş mesafesi: 10 km
Açık gökyüzü

TAF: MMCL 080316Z 0806/0906 00000KT P6SM SKC FM081800 24010KT P6SM SCT015 SCT250 FM090500 00000KT P6SM SKC

4.000'den fazla havaalanı için hava durumu gözlemleri ve tahminleri (METAR ve TAF raporları).

Kullanılabilir istasyonlar harita üzerinde sarı ve kırmızı noktalarla gösterilir.

İstasyonun adını görmek için fareyi noktanın üzerinde gezdirin.

Sonrasında hava gözlem ve tahminlerini görmek için tıklayın.

Haritayı değiştirmek için: yaklaştırmak için siyah artı işaretli yeşil düğmeye ve uzaklaştırmak için de eksi işaretli düğmeye hızla tıklayın; bitişik haritalar için yeşil okları kullanın.


METAR-TAF: